createdAt,value
2017-04-20T00:00:25.977Z,1.90
2017-04-20T00:01:25.158Z,1.90
2017-04-20T00:02:22.556Z,1.90
2017-04-20T00:03:19.920Z,2.00
2017-04-20T00:04:17.361Z,1.90
2017-04-20T00:05:15.953Z,1.90
2017-04-20T00:06:14.110Z,1.90
2017-04-20T00:07:11.440Z,1.80
2017-04-20T00:08:08.801Z,1.90
2017-04-20T00:09:07.013Z,1.90
2017-04-20T00:10:04.358Z,1.80
2017-04-20T00:11:01.678Z,1.90
2017-04-20T00:11:59.120Z,1.90
2017-04-20T00:12:57.268Z,1.90
2017-04-20T00:13:54.687Z,1.90
2017-04-20T00:14:52.774Z,1.80
2017-04-20T00:15:50.175Z,1.70
2017-04-20T00:16:47.503Z,1.80
2017-04-20T00:17:44.873Z,1.80
2017-04-20T00:18:43.018Z,1.70
2017-04-20T00:19:40.442Z,1.70
2017-04-20T00:20:37.860Z,1.70
2017-04-20T00:21:35.233Z,1.70
2017-04-20T00:22:32.641Z,1.70
2017-04-20T00:23:30.003Z,1.70
2017-04-20T00:24:27.406Z,1.70
2017-04-20T00:25:25.670Z,1.70
2017-04-20T00:26:23.539Z,1.70
2017-04-20T00:27:20.889Z,1.70
2017-04-20T00:28:18.979Z,1.70
2017-04-20T00:29:17.119Z,1.60
2017-04-20T00:30:14.649Z,1.70
2017-04-20T00:31:12.037Z,1.70
2017-04-20T00:32:09.378Z,1.70
2017-04-20T00:33:06.735Z,1.70
2017-04-20T00:34:05.348Z,1.70
2017-04-20T00:35:02.718Z,1.60
2017-04-20T00:36:00.158Z,1.60
2017-04-20T00:36:57.614Z,1.60
2017-04-20T00:37:55.698Z,1.60
2017-04-20T00:38:53.057Z,1.60
2017-04-20T00:39:50.470Z,1.60
2017-04-20T00:40:47.926Z,1.60
2017-04-20T00:41:45.269Z,1.60
2017-04-20T00:42:42.590Z,1.60
2017-04-20T00:43:39.962Z,1.60
2017-04-20T00:44:37.327Z,1.60
2017-04-20T00:45:36.239Z,1.50
2017-04-20T00:46:33.644Z,1.60
2017-04-20T00:47:31.715Z,1.50
2017-04-20T00:48:29.065Z,1.60
2017-04-20T00:49:26.521Z,1.60
2017-04-20T00:50:23.887Z,1.60
2017-04-20T00:51:21.302Z,1.50
2017-04-20T00:52:20.017Z,1.50
2017-04-20T00:53:18.097Z,1.50
2017-04-20T00:54:15.493Z,1.50
2017-04-20T00:55:12.868Z,1.50
2017-04-20T00:56:11.001Z,1.50
2017-04-20T00:57:08.417Z,1.40
2017-04-20T00:58:05.757Z,1.40
2017-04-20T00:59:04.426Z,1.40
2017-04-20T01:00:01.877Z,1.40
2017-04-20T01:00:59.268Z,1.40
2017-04-20T05:57:59.482Z,2.20
2017-04-20T05:58:57.574Z,2.20
2017-04-20T05:59:54.901Z,2.20
2017-04-20T06:00:59.750Z,2.30
2017-04-20T06:01:57.882Z,2.30
2017-04-20T06:03:28.289Z,2.30
2017-04-20T06:04:26.490Z,2.40
2017-04-20T06:05:24.641Z,2.40
2017-04-20T06:06:22.091Z,2.30
2017-04-20T06:07:20.222Z,2.40
2017-04-20T06:08:18.338Z,2.30
2017-04-20T06:09:16.584Z,2.40
2017-04-20T06:10:15.437Z,2.30
2017-04-20T06:11:13.534Z,2.40
2017-04-20T06:12:11.738Z,2.40
2017-04-20T06:13:09.859Z,2.50
2017-04-20T06:14:07.219Z,2.40
2017-04-20T06:15:05.340Z,2.60
2017-04-20T06:16:03.490Z,2.70
2017-04-20T06:17:01.585Z,2.80
2017-04-20T16:36:32.163Z,13.10
2017-04-20T16:37:31.157Z,12.90
2017-04-20T16:38:30.151Z,13.00
2017-04-20T16:39:28.415Z,13.00
2017-04-20T16:45:07.959Z,13.00
2017-04-20T16:46:06.346Z,13.00
2017-04-20T16:47:03.925Z,12.90
2017-04-20T16:48:01.505Z,13.00
2017-04-20T16:48:59.139Z,13.00
2017-04-20T16:49:56.667Z,13.00
2017-04-20T16:50:54.437Z,12.90
2017-04-20T16:51:52.042Z,12.90
2017-04-20T16:52:50.306Z,12.90
2017-04-20T16:53:48.618Z,12.90
2017-04-20T16:54:46.911Z,12.90
2017-04-20T16:55:44.430Z,12.80
2017-04-20T16:56:42.077Z,12.80
2017-04-20T16:57:39.639Z,12.80
2017-04-20T16:58:37.210Z,12.80
2017-04-20T16:59:34.839Z,12.70
2017-04-20T17:00:32.414Z,12.70
2017-04-20T17:01:29.956Z,12.70
2017-04-20T17:02:28.460Z,12.70
2017-04-20T17:03:26.068Z,12.70
2017-04-20T17:04:23.604Z,12.60
2017-04-20T17:05:22.395Z,12.50
2017-04-20T17:06:19.920Z,12.40
2017-04-20T17:07:18.194Z,12.40
2017-04-20T17:08:15.869Z,12.40
2017-04-20T17:09:14.174Z,12.40
2017-04-20T17:10:11.777Z,12.40
2017-04-20T17:11:10.100Z,12.40
2017-04-20T17:12:07.692Z,12.40
2017-04-20T17:13:06.072Z,12.40
2017-04-20T17:14:03.750Z,12.40
2017-04-20T17:15:02.051Z,12.50
2017-04-20T17:16:00.313Z,12.40
2017-04-20T17:16:58.663Z,12.40
2017-04-20T17:17:56.955Z,12.40
2017-04-20T17:18:54.512Z,12.30
2017-04-20T17:19:52.111Z,12.40
2017-04-20T17:20:49.656Z,12.40
2017-04-20T17:21:47.186Z,12.30
2017-04-20T17:22:44.704Z,12.30
2017-04-20T17:23:43.013Z,12.30
2017-04-20T17:24:40.531Z,12.20
2017-04-20T17:25:38.255Z,12.20
2017-04-20T17:26:36.682Z,12.10
2017-04-20T17:27:34.537Z,12.10
2017-04-20T17:28:32.071Z,12.10
2017-04-20T17:29:29.618Z,12.00
2017-04-20T17:30:27.195Z,12.00
2017-04-20T17:31:24.849Z,12.00
2017-04-20T17:32:23.195Z,12.00
2017-04-20T17:33:21.232Z,12.00
2017-04-20T17:34:18.861Z,12.00
2017-04-20T17:35:17.403Z,11.90
2017-04-20T17:36:15.707Z,11.90
2017-04-20T17:37:14.010Z,11.90
2017-04-20T17:38:12.321Z,11.90
2017-04-20T17:39:10.651Z,11.90
2017-04-20T17:40:08.954Z,11.90
2017-04-20T17:41:07.424Z,11.80
2017-04-20T17:42:04.986Z,11.80
2017-04-20T17:43:02.597Z,11.80
2017-04-20T17:44:00.228Z,11.80
2017-04-20T17:44:57.822Z,11.80
2017-04-20T17:45:56.085Z,11.70
2017-04-20T17:46:53.687Z,11.70
2017-04-20T17:47:51.311Z,11.70
2017-04-20T17:48:48.897Z,11.70
2017-04-20T17:49:47.212Z,11.60
2017-04-20T17:50:45.468Z,11.60
2017-04-20T17:51:43.739Z,11.60
2017-04-20T17:52:41.421Z,11.60
2017-04-20T17:53:39.029Z,11.60
2017-04-20T17:54:36.594Z,11.60
2017-04-20T17:55:34.147Z,11.50
2017-04-20T17:56:31.679Z,11.50
2017-04-20T17:57:29.196Z,11.40
2017-04-20T17:58:26.829Z,11.40
2017-04-20T17:59:24.382Z,11.40
2017-04-20T18:00:22.734Z,11.30
2017-04-20T18:01:20.348Z,11.30
2017-04-20T18:02:17.931Z,11.30
2017-04-20T18:03:15.551Z,11.30
2017-04-20T18:04:14.319Z,11.30
2017-04-20T18:05:11.851Z,11.20
2017-04-20T18:06:10.147Z,11.20
2017-04-20T18:07:08.443Z,11.20
2017-04-20T18:08:06.884Z,11.20
2017-04-20T18:09:05.535Z,11.20
2017-04-20T18:10:03.127Z,11.20
2017-04-20T18:11:00.664Z,11.10
2017-04-20T18:11:58.263Z,11.10
2017-04-20T18:12:56.707Z,11.00
2017-04-20T18:13:55.026Z,11.00
2017-04-20T18:14:53.327Z,11.00
2017-04-20T18:15:51.650Z,11.00
2017-04-20T18:16:49.935Z,10.90
2017-04-20T18:17:47.540Z,10.90
2017-04-20T18:18:45.173Z,10.90
2017-04-20T18:19:43.505Z,10.80
2017-04-20T18:20:41.792Z,10.80
2017-04-20T18:21:40.103Z,10.80
2017-04-20T18:22:38.448Z,10.80
2017-04-20T18:23:36.704Z,10.80
2017-04-20T18:24:35.099Z,10.80
2017-04-20T18:25:33.379Z,10.70
2017-04-20T18:26:32.416Z,10.70
2017-04-20T18:27:31.594Z,10.70
2017-04-20T18:28:29.965Z,10.70
2017-04-20T18:29:28.342Z,10.60
2017-04-20T18:30:26.763Z,10.70
2017-04-20T18:31:25.044Z,10.60
2017-04-20T18:32:23.380Z,10.60
2017-04-20T18:33:21.692Z,10.60
2017-04-20T18:34:19.302Z,10.50
2017-04-20T18:35:16.915Z,10.50
2017-04-20T18:36:15.303Z,10.50
2017-04-20T18:37:12.849Z,10.50
2017-04-20T18:38:11.153Z,10.50
2017-04-20T18:39:08.696Z,10.40
2017-04-20T18:40:06.283Z,10.50
2017-04-20T18:41:03.885Z,10.40
2017-04-20T18:42:01.564Z,10.40
2017-04-20T18:42:59.113Z,10.40
2017-04-20T18:43:56.683Z,10.30
2017-04-20T18:44:54.251Z,10.30
2017-04-20T18:45:51.949Z,10.30
2017-04-20T18:46:50.218Z,10.20
2017-04-20T18:47:47.806Z,10.20
2017-04-20T18:48:45.407Z,10.20
2017-04-20T18:49:42.930Z,10.10
2017-04-20T18:50:40.470Z,10.10
2017-04-20T18:51:37.991Z,10.10
2017-04-20T18:52:35.602Z,10.20
2017-04-20T18:53:33.151Z,10.00
2017-04-20T18:54:30.667Z,10.00
2017-04-20T18:55:29.004Z,9.90
2017-04-20T18:56:26.540Z,9.90
2017-04-20T18:57:24.090Z,9.90
2017-04-20T18:58:21.629Z,9.90
2017-04-20T18:59:19.982Z,9.90
2017-04-20T19:00:18.291Z,9.90
2017-04-20T19:01:16.075Z,9.80
2017-04-20T19:02:13.798Z,9.90
2017-04-20T19:03:11.418Z,9.80
2017-04-20T19:04:09.004Z,9.80
2017-04-20T19:05:07.364Z,9.80
2017-04-20T19:06:04.955Z,9.70
2017-04-20T19:07:02.570Z,9.80
2017-04-20T19:08:00.114Z,9.80
2017-04-20T19:08:57.675Z,9.70
2017-04-20T19:09:55.233Z,9.70
2017-04-20T19:10:52.869Z,9.60
2017-04-20T19:11:50.450Z,9.70
2017-04-20T19:12:47.989Z,9.60
2017-04-20T19:13:46.251Z,9.50
2017-04-20T19:14:43.766Z,9.50
2017-04-20T19:15:41.390Z,9.60
2017-04-20T19:16:38.924Z,9.50
2017-04-20T19:17:36.608Z,9.50
2017-04-20T19:18:34.545Z,9.50
2017-04-20T19:19:32.208Z,9.50
2017-04-20T19:20:30.522Z,9.50
2017-04-20T19:21:28.834Z,9.50
2017-04-20T19:22:27.189Z,9.40
2017-04-20T19:23:25.593Z,9.40
2017-04-20T19:24:23.956Z,9.40
2017-04-20T19:25:22.269Z,9.30
2017-04-20T19:26:21.374Z,9.30
2017-04-20T19:27:19.654Z,9.20
2017-04-20T19:28:18.002Z,9.20
2017-04-20T19:29:15.568Z,9.20
2017-04-20T19:30:13.178Z,9.10
2017-04-20T19:31:10.730Z,9.10
2017-04-20T19:32:08.254Z,9.00
2017-04-20T19:33:05.846Z,9.10
2017-04-20T19:34:03.394Z,9.00
2017-04-20T19:35:00.923Z,9.00
2017-04-20T19:35:59.205Z,8.90
2017-04-20T19:36:57.561Z,8.90
2017-04-20T19:37:55.958Z,8.90
2017-04-20T19:38:54.335Z,8.80
2017-04-20T19:39:52.064Z,8.80
2017-04-20T19:40:50.369Z,8.80
2017-04-20T19:41:48.752Z,8.80
2017-04-20T19:42:47.076Z,8.80
2017-04-20T19:43:45.391Z,8.70
2017-04-20T19:44:42.964Z,8.70
2017-04-20T19:45:40.540Z,8.70
2017-04-20T19:46:38.079Z,8.70
2017-04-20T19:47:35.732Z,8.70
2017-04-20T19:48:34.054Z,8.70
2017-04-20T19:49:32.369Z,8.70
2017-04-20T19:50:31.471Z,8.60
2017-04-20T19:51:29.975Z,8.70
2017-04-20T19:52:28.320Z,8.70
2017-04-20T19:53:26.723Z,8.60
2017-04-20T19:54:25.034Z,8.60
2017-04-20T19:55:23.399Z,8.60
2017-04-20T19:56:21.679Z,8.60
2017-04-20T19:57:20.019Z,8.60
2017-04-20T19:58:18.345Z,8.60
2017-04-20T19:59:16.654Z,8.50
2017-04-20T20:00:15.882Z,8.50
2017-04-20T20:01:14.170Z,8.50
2017-04-20T20:02:13.806Z,8.50
2017-04-20T20:03:12.968Z,8.40
2017-04-20T20:04:11.331Z,8.50
2017-04-20T20:05:09.672Z,8.50
2017-04-20T20:06:08.155Z,8.40
2017-04-20T20:07:06.449Z,8.40
2017-04-20T20:08:04.748Z,8.40
2017-04-20T20:09:03.634Z,8.30
2017-04-20T20:10:02.041Z,8.30
2017-04-20T20:11:00.356Z,8.30
2017-04-20T20:11:59.427Z,8.30
2017-04-20T20:12:57.704Z,8.30
2017-04-20T20:13:56.033Z,8.30
2017-04-20T20:14:54.324Z,8.30
2017-04-20T20:15:53.369Z,8.20
2017-04-20T20:16:51.771Z,8.30
2017-04-20T20:17:50.201Z,8.30
2017-04-20T20:18:47.722Z,8.30
2017-04-20T20:19:46.036Z,8.30
2017-04-20T20:20:44.314Z,8.30
2017-04-20T20:21:42.603Z,8.20
2017-04-20T20:22:40.911Z,8.20
2017-04-20T20:23:38.492Z,8.20
2017-04-20T20:24:36.063Z,8.20
2017-04-20T20:25:34.426Z,8.20
2017-04-20T20:26:32.952Z,8.20
2017-04-20T20:27:31.497Z,8.10
2017-04-20T20:28:29.145Z,8.10
2017-04-20T20:29:26.743Z,8.20
2017-04-20T20:30:24.256Z,8.20
2017-04-20T20:31:21.843Z,8.20
2017-04-20T20:32:19.392Z,8.10
2017-04-20T20:33:17.023Z,8.10
2017-04-20T20:34:14.944Z,8.10
2017-04-20T20:35:14.053Z,8.10
2017-04-20T20:36:11.817Z,8.10
2017-04-20T20:37:09.346Z,8.10
2017-04-20T20:38:06.986Z,8.10
2017-04-20T20:39:05.498Z,8.10
2017-04-20T20:40:03.787Z,8.10
2017-04-20T20:41:02.057Z,8.10
2017-04-20T20:42:00.307Z,8.10
2017-04-20T20:42:58.655Z,8.10
2017-04-20T20:43:56.998Z,8.10
2017-04-20T20:44:55.279Z,8.10
2017-04-20T20:45:53.655Z,8.10
2017-04-20T20:46:51.941Z,8.20
2017-04-20T20:47:50.207Z,8.10
2017-04-20T20:48:47.781Z,8.10
2017-04-20T20:49:45.454Z,8.20
2017-04-20T20:50:43.718Z,8.20
2017-04-20T20:51:42.102Z,8.20
2017-04-20T20:52:40.459Z,8.20
2017-04-20T20:53:38.889Z,8.20
2017-04-20T20:54:37.953Z,8.20
2017-04-20T20:55:37.080Z,8.20
2017-04-20T20:56:35.314Z,8.30
2017-04-20T20:57:33.647Z,8.30
2017-04-20T20:58:32.080Z,8.30
2017-04-20T20:59:30.365Z,8.30
2017-04-20T21:00:29.408Z,8.30
2017-04-20T21:01:27.661Z,8.30
2017-04-20T21:02:25.198Z,8.30
2017-04-20T21:03:22.767Z,8.30
2017-04-20T21:04:21.114Z,8.30
2017-04-20T21:05:19.382Z,8.40
2017-04-20T21:06:17.727Z,8.40
2017-04-20T21:07:16.072Z,8.40
2017-04-20T21:08:14.350Z,8.40
2017-04-20T21:09:12.775Z,8.40
2017-04-20T21:10:11.041Z,8.40
2017-04-20T21:11:09.408Z,8.40
2017-04-20T21:12:07.719Z,8.40
2017-04-20T21:13:05.251Z,8.40
2017-04-20T21:14:03.570Z,8.40
2017-04-20T21:15:01.928Z,8.40
2017-04-20T21:16:00.203Z,8.40
2017-04-20T21:16:58.468Z,8.40
2017-04-20T21:17:56.000Z,8.40
2017-04-20T21:18:54.235Z,8.50
2017-04-20T21:19:52.488Z,8.50
2017-04-20T21:20:50.132Z,8.40
2017-04-20T21:21:47.761Z,8.50
2017-04-20T21:22:46.069Z,8.50
2017-04-20T21:23:44.327Z,8.50
2017-04-20T21:24:42.665Z,8.50
2017-04-20T21:25:40.898Z,8.50
2017-04-20T21:26:39.277Z,8.50
2017-04-20T21:27:38.258Z,8.50
2017-04-20T21:28:35.822Z,8.50
2017-04-20T21:29:33.927Z,8.50
2017-04-20T21:30:31.426Z,8.50
2017-04-20T21:31:28.959Z,8.60
2017-04-20T21:32:27.287Z,8.50
2017-04-20T21:33:25.538Z,8.60
2017-04-20T21:34:23.092Z,8.60
2017-04-20T21:35:20.595Z,8.50
2017-04-20T21:36:18.142Z,8.50
2017-04-20T21:37:16.428Z,8.50
2017-04-20T21:38:14.076Z,8.50
2017-04-20T21:39:11.559Z,8.60
2017-04-20T21:40:09.087Z,8.50
2017-04-20T21:41:06.675Z,8.50
2017-04-20T21:42:04.198Z,8.50
2017-04-20T21:43:01.808Z,8.50
2017-04-20T21:43:59.416Z,8.50
2017-04-20T21:44:56.950Z,8.60
2017-04-20T21:45:54.500Z,8.50
2017-04-20T21:46:52.080Z,8.50
2017-04-20T21:47:50.377Z,8.40
2017-04-20T21:48:47.883Z,8.40
2017-04-20T21:49:45.568Z,8.40
2017-04-20T21:50:43.831Z,8.40
2017-04-20T21:51:42.080Z,8.40
2017-04-20T21:52:40.398Z,8.40
2017-04-20T21:53:38.757Z,8.40
2017-04-20T21:54:37.023Z,8.30
2017-04-20T21:55:35.301Z,8.30
2017-04-20T21:56:33.561Z,8.30
2017-04-20T21:57:32.022Z,8.30
2017-04-20T21:58:30.322Z,8.20
2017-04-20T21:59:28.548Z,8.20
2017-04-20T22:00:26.864Z,8.20
2017-04-20T22:01:25.132Z,8.20
2017-04-20T22:02:23.498Z,8.20
2017-04-20T22:03:21.122Z,8.10
2017-04-20T22:04:19.492Z,8.20
2017-04-20T22:05:17.232Z,8.10
2017-04-20T22:06:14.768Z,8.30
2017-04-20T22:07:12.339Z,8.10
2017-04-20T22:08:09.899Z,8.10
2017-04-20T22:09:07.464Z,8.10
2017-04-20T22:10:05.124Z,8.10
2017-04-20T22:11:02.651Z,8.10
2017-04-20T22:12:00.231Z,8.00
2017-04-20T22:12:57.771Z,8.10
2017-04-20T22:13:55.268Z,8.00
2017-04-20T22:14:52.816Z,8.00
2017-04-20T22:15:50.430Z,8.00
2017-04-20T22:16:47.963Z,8.00
2017-04-20T22:17:46.261Z,8.00
2017-04-20T22:18:43.776Z,8.00
2017-04-20T22:19:41.308Z,7.90
2017-04-20T22:20:38.839Z,8.00
2017-04-20T22:21:36.503Z,7.90
2017-04-20T22:22:34.046Z,7.90
2017-04-20T22:23:32.293Z,7.90
2017-04-20T22:24:29.795Z,7.90
2017-04-20T22:25:27.349Z,7.90
2017-04-20T22:26:24.871Z,7.90
2017-04-20T22:27:22.482Z,7.90
2017-04-20T22:28:19.999Z,7.90
2017-04-20T22:29:17.499Z,7.90
2017-04-20T22:30:15.001Z,7.90
2017-04-20T22:31:12.575Z,7.90
2017-04-20T22:32:10.835Z,7.90
2017-04-20T22:33:08.437Z,7.90
2017-04-20T22:34:05.937Z,7.90
2017-04-20T22:35:03.555Z,7.90
2017-04-20T22:36:01.084Z,7.90
2017-04-20T22:36:58.746Z,7.90
2017-04-20T22:37:56.287Z,7.90
2017-04-20T22:38:53.913Z,7.90
2017-04-20T22:39:51.468Z,7.90
2017-04-20T22:40:48.964Z,7.90
2017-04-20T22:41:46.507Z,8.00
2017-04-20T22:42:44.079Z,8.00
2017-04-20T22:43:41.687Z,8.00
2017-04-20T22:44:39.247Z,8.00
2017-04-20T22:45:37.154Z,8.00
2017-04-20T22:46:34.715Z,8.00
2017-04-20T22:47:32.963Z,7.90
2017-04-20T22:48:31.738Z,7.90
2017-04-20T22:49:29.363Z,7.80
2017-04-20T22:50:26.934Z,7.90
2017-04-20T22:51:24.515Z,7.90
2017-04-20T22:52:22.055Z,7.90
2017-04-20T22:53:20.518Z,7.90
2017-04-20T22:54:18.852Z,7.90
2017-04-20T22:55:17.187Z,7.90
2017-04-20T22:56:15.441Z,7.80
2017-04-20T22:57:13.710Z,7.90
2017-04-20T22:58:11.992Z,7.90
2017-04-20T22:59:10.383Z,7.90
2017-04-20T23:00:08.719Z,7.90
2017-04-20T23:01:06.947Z,7.90
2017-04-20T23:02:05.539Z,7.90
2017-04-20T23:03:03.056Z,7.90
2017-04-20T23:04:00.639Z,7.90
2017-04-20T23:04:58.212Z,7.90
2017-04-20T23:05:56.460Z,7.90
2017-04-20T23:06:54.016Z,7.90
2017-04-20T23:07:51.527Z,8.00
2017-04-20T23:08:49.063Z,7.90
2017-04-20T23:09:46.710Z,7.90
2017-04-20T23:10:44.219Z,7.90
2017-04-20T23:11:41.753Z,7.90
2017-04-20T23:12:39.305Z,7.90
2017-04-20T23:13:37.568Z,7.90
2017-04-20T23:14:35.914Z,7.90
2017-04-20T23:15:33.625Z,7.80
2017-04-20T23:16:31.110Z,7.90
2017-04-20T23:17:29.386Z,7.90
2017-04-20T23:18:26.962Z,7.90
2017-04-20T23:19:24.480Z,7.90
2017-04-20T23:20:22.703Z,7.90
2017-04-20T23:21:20.268Z,7.90
2017-04-20T23:22:18.487Z,8.00
2017-04-20T23:23:15.987Z,7.90
2017-04-20T23:24:14.212Z,8.00
2017-04-20T23:25:12.423Z,8.00
2017-04-20T23:26:10.038Z,7.90
2017-04-20T23:27:08.309Z,8.00
2017-04-20T23:28:07.283Z,7.90
2017-04-20T23:29:05.550Z,8.00
2017-04-20T23:30:03.795Z,8.00
2017-04-20T23:31:01.331Z,8.00
2017-04-20T23:31:58.944Z,8.00
2017-04-20T23:32:57.168Z,8.10
2017-04-20T23:33:55.402Z,8.10
2017-04-20T23:34:52.897Z,8.00
2017-04-20T23:35:50.399Z,8.10
2017-04-20T23:36:47.924Z,8.10
2017-04-20T23:37:46.354Z,8.20
2017-04-20T23:38:43.847Z,8.10
2017-04-20T23:39:41.355Z,8.20
2017-04-20T23:40:38.939Z,8.20
2017-04-20T23:41:37.272Z,8.30
2017-04-20T23:42:34.783Z,8.20
2017-04-20T23:43:32.406Z,8.20
2017-04-20T23:44:29.876Z,8.30
2017-04-20T23:45:27.430Z,8.30
2017-04-20T23:46:25.688Z,8.30
2017-04-20T23:47:23.187Z,8.30
2017-04-20T23:48:21.418Z,8.30
2017-04-20T23:49:19.020Z,8.40
2017-04-20T23:50:17.222Z,8.40
2017-04-20T23:51:14.715Z,8.40
2017-04-20T23:52:12.345Z,8.40
2017-04-20T23:53:09.867Z,8.40
2017-04-20T23:54:07.360Z,8.40
2017-04-20T23:55:04.982Z,8.50
2017-04-20T23:56:02.458Z,8.50
2017-04-20T23:56:59.925Z,8.50
2017-04-20T23:57:57.623Z,8.50
2017-04-20T23:58:55.157Z,8.50
2017-04-20T23:59:53.405Z,8.50
